createdAt,value
2018-12-14T00:01:01.792Z,155.67
2018-12-14T00:03:52.601Z,159.30
2018-12-14T00:06:43.276Z,154.63
2018-12-14T00:09:33.428Z,165.20
2018-12-14T00:12:21.812Z,164.40
2018-12-14T00:15:12.332Z,158.45
2018-12-14T00:17:59.963Z,173.07
2018-12-14T00:20:48.030Z,163.62
2018-12-14T00:23:36.001Z,170.02
2018-12-14T00:26:23.857Z,169.82
2018-12-14T00:29:12.232Z,164.45
2018-12-14T00:32:00.866Z,166.62
2018-12-14T00:34:50.408Z,169.47
2018-12-14T00:37:38.185Z,166.68
2018-12-14T00:40:25.511Z,170.90
2018-12-14T00:43:13.738Z,172.17
2018-12-14T00:46:01.961Z,161.77
2018-12-14T00:48:50.364Z,168.10
2018-12-14T00:51:38.660Z,178.15
2018-12-14T00:54:26.115Z,168.85
2018-12-14T00:57:13.945Z,172.35
2018-12-14T01:00:03.263Z,169.82
2018-12-14T01:02:50.971Z,165.22
2018-12-14T01:05:39.120Z,158.35
2018-12-14T01:08:28.918Z,155.40
2018-12-14T01:11:17.505Z,150.70
2018-12-14T01:14:05.525Z,163.62
2018-12-14T01:16:54.532Z,167.32
2018-12-14T01:19:42.524Z,168.05
2018-12-14T01:22:30.652Z,175.47
2018-12-14T01:25:19.236Z,163.82
2018-12-14T01:28:07.447Z,170.05
2018-12-14T01:30:54.979Z,168.30
2018-12-14T01:33:43.282Z,162.18
2018-12-14T01:36:30.855Z,162.72
2018-12-14T01:39:18.953Z,157.62
2018-12-14T01:42:07.861Z,152.12
2018-12-14T01:44:56.653Z,156.52
2018-12-14T01:47:44.575Z,142.82
2018-12-14T01:50:33.222Z,138.90
2018-12-14T01:53:21.273Z,140.30
2018-12-14T01:56:09.398Z,129.45
2018-12-14T01:58:58.194Z,126.22
2018-12-14T02:01:46.878Z,126.78
2018-12-14T02:04:34.921Z,133.60
2018-12-14T02:07:23.451Z,127.02
2018-12-14T02:10:11.720Z,119.60
2018-12-14T02:13:00.015Z,121.50
2018-12-14T02:15:48.822Z,118.72
2018-12-14T02:18:36.558Z,119.17
2018-12-14T02:21:24.745Z,117.45
2018-12-14T02:24:14.306Z,114.08
2018-12-14T02:27:04.751Z,112.10
2018-12-14T02:29:54.588Z,117.37
2018-12-14T02:32:42.600Z,121.47
2018-12-14T02:35:31.675Z,125.05
2018-12-14T02:38:23.914Z,142.85
2018-12-14T02:41:12.765Z,131.70
2018-12-14T02:44:01.373Z,138.40
2018-12-14T02:46:50.596Z,144.87
2018-12-14T02:49:39.862Z,158.50
2018-12-14T02:52:29.958Z,158.78
2018-12-14T02:55:17.695Z,165.32
2018-12-14T02:58:05.338Z,161.07
2018-12-14T03:00:53.666Z,166.57
2018-12-14T03:03:42.192Z,154.70
2018-12-14T03:06:32.569Z,157.15
2018-12-14T03:09:20.667Z,150.10
2018-12-14T03:12:08.309Z,148.02
2018-12-14T03:14:56.946Z,152.82
2018-12-14T03:17:45.469Z,150.18
2018-12-14T03:20:33.666Z,156.75
2018-12-14T03:23:22.375Z,168.87
2018-12-14T03:26:10.070Z,160.25
2018-12-14T03:29:00.645Z,171.47
2018-12-14T03:31:48.442Z,171.77
2018-12-14T03:34:36.469Z,173.72
2018-12-14T03:37:25.775Z,170.90
2018-12-14T03:40:15.026Z,182.75
2018-12-14T03:43:03.122Z,174.45
2018-12-14T03:45:51.504Z,166.25
2018-12-14T03:48:41.338Z,161.68
2018-12-14T03:51:32.021Z,161.25
2018-12-14T03:54:21.124Z,153.27
2018-12-14T03:57:08.748Z,193.62
2018-12-14T03:59:57.293Z,190.70
2018-12-14T04:02:46.801Z,192.68
2018-12-14T04:05:35.375Z,200.05
2018-12-14T04:08:24.102Z,179.38
2018-12-14T04:11:13.006Z,191.25
2018-12-14T04:14:01.640Z,192.13
2018-12-14T04:16:48.876Z,181.25
2018-12-14T04:19:37.017Z,199.10
2018-12-14T04:22:25.038Z,197.70
2018-12-14T04:25:12.578Z,195.92
2018-12-14T04:28:01.246Z,202.95
2018-12-14T04:30:50.053Z,198.82
2018-12-14T04:33:39.517Z,200.05
2018-12-14T04:36:27.467Z,189.70
2018-12-14T04:39:19.715Z,196.22
2018-12-14T04:42:08.392Z,200.68
2018-12-14T04:44:56.570Z,193.70
2018-12-14T04:47:45.428Z,192.65
2018-12-14T04:50:39.002Z,199.17
2018-12-14T04:53:27.574Z,182.95
2018-12-14T04:56:16.773Z,185.00
2018-12-14T04:59:04.964Z,190.12
2018-12-14T05:01:53.033Z,182.65
2018-12-14T05:04:42.136Z,174.32
2018-12-14T05:07:30.319Z,181.57
2018-12-14T05:10:18.419Z,175.10
2018-12-14T05:13:07.306Z,173.57
2018-12-14T05:15:55.860Z,172.07
2018-12-14T05:18:44.703Z,169.05
2018-12-14T05:21:36.173Z,178.35
2018-12-14T05:24:27.689Z,170.77
2018-12-14T05:27:19.119Z,170.05
2018-12-14T05:30:18.144Z,174.82
2018-12-14T05:33:09.350Z,169.45
2018-12-14T05:35:59.443Z,161.25
2018-12-14T05:38:50.828Z,161.47
2018-12-14T05:41:40.418Z,163.82
2018-12-14T05:44:29.392Z,168.55
2018-12-14T05:47:19.234Z,162.95
2018-12-14T05:50:09.320Z,174.97
2018-12-14T05:52:58.915Z,169.07
2018-12-14T05:55:58.573Z,162.60
2018-12-14T05:58:49.389Z,164.32
2018-12-14T06:01:37.887Z,161.90
2018-12-14T06:04:26.330Z,157.97
2018-12-14T06:07:17.515Z,156.63
2018-12-14T06:10:13.269Z,151.75
2018-12-14T06:13:08.908Z,157.12
2018-12-14T06:15:57.564Z,152.32
2018-12-14T06:18:47.382Z,150.10
2018-12-14T06:21:37.439Z,152.82
2018-12-14T06:24:27.651Z,150.95
2018-12-14T06:27:16.451Z,152.22
2018-12-14T06:30:12.080Z,149.72
2018-12-14T06:33:03.978Z,154.05
2018-12-14T06:35:56.842Z,153.40
2018-12-14T06:38:52.562Z,150.65
2018-12-14T06:41:46.894Z,158.65
2018-12-14T06:44:43.417Z,156.63
2018-12-14T06:47:35.810Z,147.62
2018-12-14T06:50:32.910Z,149.75
2018-12-14T06:53:25.638Z,149.87
2018-12-14T06:56:22.344Z,155.25
2018-12-14T06:59:12.249Z,149.70
2018-12-14T07:02:01.483Z,156.72
2018-12-14T07:04:53.763Z,161.35
2018-12-14T07:07:44.205Z,164.20
2018-12-14T07:10:34.908Z,153.68
2018-12-14T07:13:26.048Z,152.78
2018-12-14T07:16:16.430Z,153.18
2018-12-14T07:19:05.448Z,154.42
2018-12-14T07:21:55.647Z,160.70
2018-12-14T07:24:48.532Z,157.22
2018-12-14T07:27:36.941Z,153.87
2018-12-14T07:30:25.670Z,151.18
2018-12-14T07:33:16.161Z,146.10
2018-12-14T07:36:06.823Z,145.15
2018-12-14T07:38:55.909Z,149.60
2018-12-14T07:41:48.968Z,151.72
2018-12-14T07:44:40.821Z,152.30
2018-12-14T07:47:29.871Z,144.82
2018-12-14T07:50:18.451Z,148.53
2018-12-14T07:53:09.228Z,153.85
2018-12-14T07:55:59.314Z,141.47
2018-12-14T07:58:50.164Z,141.03
2018-12-14T08:01:40.883Z,148.85
2018-12-14T08:04:30.275Z,146.55
2018-12-14T08:07:19.519Z,149.45
2018-12-14T08:10:08.563Z,145.05
2018-12-14T08:12:57.268Z,141.35
2018-12-14T08:15:47.308Z,140.15
2018-12-14T08:18:37.149Z,137.50
2018-12-14T08:21:26.237Z,141.95
2018-12-14T08:24:14.667Z,135.93
2018-12-14T08:27:03.731Z,130.93
2018-12-14T08:29:53.025Z,133.07
2018-12-14T08:32:43.352Z,131.93
2018-12-14T08:35:33.468Z,135.95
2018-12-14T08:38:24.960Z,132.43
2018-12-14T08:41:16.164Z,132.22
2018-12-14T08:44:08.854Z,124.12
2018-12-14T08:47:00.661Z,126.30
2018-12-14T08:49:52.023Z,132.20
2018-12-14T08:52:41.937Z,125.27
2018-12-14T08:55:35.735Z,120.62
2018-12-14T08:58:26.987Z,119.30
2018-12-14T09:01:17.573Z,120.13
2018-12-14T09:04:08.458Z,122.65
2018-12-14T09:16:38.954Z,123.92
2018-12-14T09:19:28.763Z,124.27
2018-12-14T09:22:18.711Z,114.12
2018-12-14T09:25:13.480Z,116.95
2018-12-14T09:28:02.768Z,118.55
2018-12-14T09:30:52.881Z,118.75
2018-12-14T09:33:42.382Z,112.85
2018-12-14T09:36:33.252Z,116.47
2018-12-14T09:39:23.676Z,107.45
2018-12-14T09:42:12.188Z,107.72
2018-12-14T09:45:06.262Z,114.22
2018-12-14T09:47:57.672Z,113.03
2018-12-14T09:50:46.282Z,112.83
2018-12-14T09:53:34.712Z,112.17
2018-12-14T09:56:22.425Z,115.12
2018-12-14T09:59:10.748Z,113.57
2018-12-14T10:02:01.366Z,110.65
2018-12-14T10:04:50.801Z,116.53
2018-12-14T10:07:46.581Z,114.17
2018-12-14T10:10:31.728Z,107.47
2018-12-14T10:13:20.323Z,117.00
2018-12-14T10:16:12.424Z,105.92
2018-12-14T10:19:03.746Z,119.53
2018-12-14T10:21:55.040Z,108.70
2018-12-14T10:24:45.687Z,111.60
2018-12-14T10:27:35.733Z,115.97
2018-12-14T10:30:29.873Z,114.37
2018-12-14T10:33:20.926Z,117.47
2018-12-14T10:36:11.319Z,112.50
2018-12-14T10:39:05.845Z,117.03
2018-12-14T10:42:04.859Z,118.70
2018-12-14T10:45:02.802Z,114.45
2018-12-14T10:48:04.439Z,117.03
2018-12-14T10:51:03.409Z,112.80
2018-12-14T10:53:58.074Z,113.20
2018-12-14T11:07:48.344Z,116.50
2018-12-14T11:11:02.828Z,111.62
2018-12-14T11:14:13.745Z,113.40
2018-12-14T11:17:19.340Z,107.30
2018-12-14T11:20:33.910Z,99.17
2018-12-14T11:23:31.059Z,111.80
2018-12-14T11:26:26.678Z,110.03
2018-12-14T11:33:04.213Z,113.50
2018-12-14T11:36:05.716Z,116.08
2018-12-14T11:39:07.188Z,128.90
2018-12-14T11:42:27.357Z,120.72
2018-12-14T11:45:57.798Z,122.00
2018-12-14T11:49:09.760Z,139.70
2018-12-14T11:52:33.959Z,133.43
2018-12-14T11:55:43.483Z,141.62
2018-12-14T11:58:44.284Z,133.55
2018-12-14T12:02:06.960Z,135.05
2018-12-14T12:08:39.998Z,155.40
2018-12-14T12:11:53.067Z,156.80
2018-12-14T12:15:14.657Z,151.78
2018-12-14T12:18:49.278Z,145.60
2018-12-14T12:22:39.445Z,136.62
2018-12-14T12:25:51.051Z,137.95
2018-12-14T12:29:14.273Z,148.80
2018-12-14T12:32:16.672Z,152.43
2018-12-14T12:35:26.690Z,153.30
2018-12-14T12:38:24.101Z,153.45
2018-12-14T12:45:47.970Z,161.43
2018-12-14T12:52:32.616Z,166.82
2018-12-14T12:59:16.996Z,162.60
2018-12-14T13:02:34.202Z,176.42
2018-12-14T13:05:34.840Z,180.70
2018-12-14T13:12:50.964Z,178.82
2018-12-14T13:15:56.853Z,182.78
2018-12-14T13:18:54.096Z,181.25
2018-12-14T13:21:56.387Z,186.40
2018-12-14T13:27:55.750Z,184.37
2018-12-14T13:30:51.349Z,178.05
2018-12-14T13:33:54.971Z,179.15
2018-12-14T13:36:50.935Z,166.15
2018-12-14T13:39:58.014Z,162.55
2018-12-14T13:43:05.824Z,163.07
2018-12-14T13:46:21.865Z,154.30
2018-12-14T13:49:28.779Z,184.20
2018-12-14T13:52:41.399Z,181.90
2018-12-14T13:56:00.237Z,180.00
2018-12-14T13:59:11.659Z,188.18
2018-12-14T14:02:31.295Z,197.82
2018-12-14T14:05:42.816Z,200.57
2018-12-14T14:09:04.829Z,202.10
2018-12-14T14:12:30.654Z,191.32
2018-12-14T14:19:15.660Z,201.18
2018-12-14T14:22:39.079Z,214.35
2018-12-14T14:25:51.369Z,211.25
2018-12-14T14:29:06.694Z,213.43
2018-12-14T14:32:17.558Z,202.65
2018-12-14T14:35:22.146Z,209.00
2018-12-14T14:38:34.653Z,197.15
2018-12-14T14:41:45.710Z,208.65
2018-12-14T14:44:48.120Z,203.22
2018-12-14T14:48:00.993Z,206.20
2018-12-14T14:51:08.178Z,196.22
2018-12-14T14:54:02.028Z,198.90
2018-12-14T14:57:11.241Z,195.57
2018-12-14T15:00:09.916Z,192.18
2018-12-14T15:03:12.575Z,196.70
2018-12-14T15:06:17.865Z,194.43
2018-12-14T15:09:20.011Z,199.90
2018-12-14T15:12:36.654Z,200.40
2018-12-14T15:15:41.160Z,203.70
2018-12-14T15:18:57.174Z,212.53
2018-12-14T15:22:04.672Z,222.37
2018-12-14T15:25:16.035Z,218.75
2018-12-14T15:28:31.696Z,217.25
2018-12-14T15:31:44.349Z,219.68
2018-12-14T15:35:01.857Z,220.70
2018-12-14T15:38:18.554Z,216.17
2018-12-14T15:41:27.701Z,224.30
2018-12-14T15:44:41.783Z,229.20
2018-12-14T15:47:55.441Z,220.22
2018-12-14T15:51:05.500Z,238.57
2018-12-14T15:53:54.779Z,238.80
2018-12-14T15:57:06.354Z,220.82
2018-12-14T16:00:11.193Z,214.70
2018-12-14T16:03:01.411Z,207.72
2018-12-14T16:05:50.770Z,216.30
2018-12-14T16:08:41.396Z,222.27
2018-12-14T16:11:30.740Z,205.07
2018-12-14T16:14:21.201Z,209.00
2018-12-14T16:17:10.913Z,201.70
2018-12-14T16:20:01.248Z,185.90
2018-12-14T16:22:50.051Z,208.20
2018-12-14T16:25:39.009Z,186.07
2018-12-14T16:28:27.924Z,196.43
2018-12-14T16:31:16.837Z,198.43
2018-12-14T16:34:05.847Z,195.35
2018-12-14T16:36:57.495Z,204.75
2018-12-14T16:39:46.408Z,195.72
2018-12-14T16:42:35.612Z,187.80
2018-12-14T16:45:26.656Z,184.18
2018-12-14T16:48:16.226Z,186.80
2018-12-14T16:51:06.499Z,195.05
2018-12-14T16:53:58.903Z,187.72
2018-12-14T16:59:41.814Z,182.10
2018-12-14T17:02:30.572Z,187.97
2018-12-14T17:05:19.554Z,190.35
2018-12-14T17:08:08.146Z,183.52
2018-12-14T17:10:56.462Z,185.10
2018-12-14T17:13:47.191Z,185.37
2018-12-14T17:16:38.834Z,167.57
2018-12-14T17:19:30.786Z,174.05
2018-12-14T17:22:22.837Z,161.15
2018-12-14T17:25:14.888Z,166.85
2018-12-14T17:28:05.892Z,161.20
2018-12-14T17:30:57.000Z,152.72
2018-12-14T17:33:47.093Z,159.72
2018-12-14T17:36:38.891Z,155.72
2018-12-14T17:39:33.014Z,156.97
2018-12-14T17:42:22.938Z,145.45
2018-12-14T17:45:11.564Z,156.87
2018-12-14T17:48:01.817Z,145.75
2018-12-14T17:50:50.778Z,148.07
2018-12-14T17:53:40.255Z,151.05
2018-12-14T17:56:29.179Z,150.03
2018-12-14T17:59:17.757Z,151.63
2018-12-14T18:02:08.109Z,146.53
2018-12-14T18:04:57.088Z,152.82
2018-12-14T18:07:46.824Z,154.97
2018-12-14T18:10:36.667Z,156.95
2018-12-14T18:13:24.728Z,146.75
2018-12-14T18:16:13.171Z,143.02
2018-12-14T18:19:02.489Z,145.97
2018-12-14T18:24:45.179Z,144.87
2018-12-14T18:27:33.977Z,143.55
2018-12-14T18:30:22.449Z,137.70
2018-12-14T18:33:11.574Z,140.70
2018-12-14T18:36:00.539Z,148.70
2018-12-14T18:38:48.036Z,141.45
2018-12-14T18:41:38.805Z,149.85
2018-12-14T18:44:29.094Z,149.12
2018-12-14T18:47:19.592Z,148.17
2018-12-14T18:50:11.025Z,141.05
2018-12-14T18:53:01.648Z,145.22
2018-12-14T18:55:52.428Z,142.77
2018-12-14T18:58:42.084Z,141.95
2018-12-14T19:01:29.874Z,135.80
2018-12-14T19:04:18.447Z,128.90
2018-12-14T19:07:07.976Z,133.25
2018-12-14T19:09:57.391Z,142.18
2018-12-14T19:12:47.037Z,136.20
2018-12-14T19:15:36.300Z,134.03
2018-12-14T19:18:24.702Z,134.47
2018-12-14T19:21:12.983Z,121.60
2018-12-14T19:24:04.088Z,130.80
2018-12-14T19:26:53.248Z,127.58
2018-12-14T19:29:43.426Z,134.72
2018-12-14T19:32:32.011Z,134.43
2018-12-14T19:35:20.495Z,129.87
2018-12-14T19:38:10.185Z,128.47
2018-12-14T19:40:58.746Z,124.95
2018-12-14T19:43:47.478Z,123.35
2018-12-14T19:46:35.305Z,122.67
2018-12-14T19:49:24.882Z,123.55
2018-12-14T19:52:13.933Z,133.12
2018-12-14T19:55:03.867Z,126.42
2018-12-14T19:57:54.419Z,126.58
2018-12-14T20:00:43.795Z,120.10
2018-12-14T20:03:31.984Z,135.00
